createdAt,value
2018-07-04T00:00:55.788Z,1009.9
2018-07-04T00:02:05.761Z,1009.9
2018-07-04T00:03:15.216Z,1009.92
2018-07-04T00:04:24.938Z,1009.93
2018-07-04T00:05:34.906Z,1009.94
2018-07-04T00:06:44.881Z,1009.94
2018-07-04T00:07:54.848Z,1009.93
2018-07-04T00:09:04.811Z,1009.92
2018-07-04T00:10:14.537Z,1009.9
2018-07-04T00:11:24.264Z,1009.92
2018-07-04T00:12:33.979Z,1009.88
2018-07-04T00:13:43.959Z,1009.88
2018-07-04T00:14:53.677Z,1009.9
2018-07-04T00:16:03.644Z,1009.88
2018-07-04T00:17:13.630Z,1009.92
2018-07-04T00:18:23.081Z,1009.91
2018-07-04T00:19:32.537Z,1009.88
2018-07-04T00:20:42.245Z,1009.92
2018-07-04T00:21:51.700Z,1009.9
2018-07-04T00:23:01.403Z,1009.91
2018-07-04T00:24:11.109Z,1009.9
2018-07-04T00:25:20.553Z,1009.86
2018-07-04T00:26:30.259Z,1009.9
2018-07-04T00:27:40.222Z,1009.87
2018-07-04T00:28:49.932Z,1009.88
2018-07-04T00:29:59.899Z,1009.88
2018-07-04T00:31:09.881Z,1009.93
2018-07-04T00:32:19.840Z,1009.95
2018-07-04T00:33:29.818Z,1009.91
2018-07-04T00:34:39.530Z,1009.86
2018-07-04T00:35:49.504Z,1009.91
2018-07-04T00:36:59.466Z,1009.9
2018-07-04T00:38:09.433Z,1009.9
2018-07-04T00:39:19.399Z,1009.93
2018-07-04T00:40:29.362Z,1009.92
2018-07-04T00:41:39.085Z,1009.94
2018-07-04T00:42:49.070Z,1009.93
2018-07-04T00:43:59.032Z,1009.97
2018-07-04T00:45:08.740Z,1009.96
2018-07-04T00:46:18.713Z,1009.97
2018-07-04T00:47:28.676Z,1009.98
2018-07-04T00:48:38.661Z,1009.97
2018-07-04T00:49:48.674Z,1009.95
2018-07-04T00:50:58.428Z,1009.99
2018-07-04T00:52:08.395Z,1009.96
2018-07-04T00:53:18.110Z,1009.95
2018-07-04T00:54:28.077Z,1009.91
2018-07-04T00:55:38.051Z,1009.88
2018-07-04T00:56:47.754Z,1009.91
2018-07-04T00:57:57.728Z,1009.91
2018-07-04T00:59:07.437Z,1009.89
2018-07-04T01:00:17.424Z,1009.91
2018-07-04T01:01:27.138Z,1009.88
2018-07-04T01:02:37.102Z,1009.86
2018-07-04T01:03:47.081Z,1009.86
2018-07-04T01:04:57.056Z,1009.79
2018-07-04T01:06:06.764Z,1009.81
2018-07-04T01:07:16.731Z,1009.85
2018-07-04T01:08:26.704Z,1009.85
2018-07-04T01:09:36.687Z,1009.87
2018-07-04T01:10:46.658Z,1009.86
2018-07-04T01:11:56.635Z,1009.85
2018-07-04T01:13:06.616Z,1009.89
2018-07-04T01:14:16.582Z,1009.89
2018-07-04T01:15:26.559Z,1009.87
2018-07-04T01:16:36.270Z,1009.86
2018-07-04T01:17:45.723Z,1009.83
2018-07-04T01:18:55.437Z,1009.83
2018-07-04T01:20:05.149Z,1009.77
2018-07-04T01:21:14.602Z,1009.81
2018-07-04T01:22:24.312Z,1009.8
2018-07-04T01:23:34.294Z,1009.77
2018-07-04T01:24:44.005Z,1009.76
2018-07-04T01:25:53.707Z,1009.74
2018-07-04T01:27:03.669Z,1009.75
2018-07-04T01:28:13.130Z,1009.75
2018-07-04T01:29:23.101Z,1009.71
2018-07-04T01:30:33.068Z,1009.74
2018-07-04T01:31:43.035Z,1009.78
2018-07-04T01:32:52.999Z,1009.76
2018-07-04T01:34:02.705Z,1009.75
2018-07-04T01:35:12.671Z,1009.76
2018-07-04T01:36:22.380Z,1009.79
2018-07-04T01:37:32.109Z,1009.76
2018-07-04T01:38:42.077Z,1009.76
2018-07-04T01:39:51.778Z,1009.8
2018-07-04T01:41:01.491Z,1009.76
2018-07-04T01:42:11.461Z,1009.74
2018-07-04T01:43:21.441Z,1009.74
2018-07-04T01:44:30.906Z,1009.77
2018-07-04T01:45:40.610Z,1009.76
2018-07-04T01:46:50.576Z,1009.75
2018-07-04T01:48:00.294Z,1009.78
2018-07-04T01:49:10.262Z,1009.77
2018-07-04T01:50:19.974Z,1009.76
2018-07-04T01:51:29.677Z,1009.77
2018-07-04T01:52:39.637Z,1009.74
2018-07-04T01:53:49.344Z,1009.73
2018-07-04T01:54:59.312Z,1009.71
2018-07-04T01:56:08.773Z,1009.67
2018-07-04T01:57:18.737Z,1009.64
2018-07-04T01:58:28.704Z,1009.63
2018-07-04T01:59:38.670Z,1009.61
2018-07-04T02:00:48.643Z,1009.59
2018-07-04T02:01:58.094Z,1009.58
2018-07-04T02:03:08.073Z,1009.61
2018-07-04T02:04:18.045Z,1009.64
2018-07-04T02:05:28.022Z,1009.6
2018-07-04T02:06:37.469Z,1009.6
2018-07-04T02:07:47.174Z,1009.6
2018-07-04T02:08:57.138Z,1009.62
2018-07-04T02:10:07.100Z,1009.66
2018-07-04T02:11:16.800Z,1009.62
2018-07-04T02:12:26.770Z,1009.64
2018-07-04T02:13:36.744Z,1009.64
2018-07-04T02:14:46.702Z,1009.63
2018-07-04T02:15:56.667Z,1009.68
2018-07-04T02:17:06.629Z,1009.65
2018-07-04T02:18:16.598Z,1009.69
2018-07-04T02:19:26.577Z,1009.66
2018-07-04T02:20:36.292Z,1009.7
2018-07-04T02:21:46.002Z,1009.71
2018-07-04T02:22:55.982Z,1009.66
2018-07-04T02:24:05.950Z,1009.69
2018-07-04T02:25:15.664Z,1009.69
2018-07-04T02:26:25.632Z,1009.7
2018-07-04T02:27:35.344Z,1009.69
2018-07-04T02:28:45.304Z,1009.68
2018-07-04T02:29:55.013Z,1009.68
2018-07-04T02:31:05.015Z,1009.68
2018-07-04T02:32:14.730Z,1009.69
2018-07-04T02:33:24.454Z,1009.63
2018-07-04T02:34:34.415Z,1009.62
2018-07-04T02:35:44.114Z,1009.67
2018-07-04T02:36:54.089Z,1009.65
2018-07-04T02:38:03.815Z,1009.65
2018-07-04T02:39:13.526Z,1009.64
2018-07-04T02:40:23.489Z,1009.68
2018-07-04T02:41:33.452Z,1009.65
2018-07-04T02:42:42.901Z,1009.66
2018-07-04T02:43:52.623Z,1009.65
2018-07-04T02:45:02.725Z,1009.66
2018-07-04T02:46:13.042Z,1009.68
2018-07-04T02:47:22.748Z,1009.66
2018-07-04T02:48:32.733Z,1009.65
2018-07-04T02:49:42.708Z,1009.59
2018-07-04T02:50:52.670Z,1009.6
2018-07-04T02:52:02.653Z,1009.61
2018-07-04T02:53:12.622Z,1009.62
2018-07-04T02:54:22.590Z,1009.63
2018-07-04T02:55:32.565Z,1009.63
2018-07-04T02:56:42.273Z,1009.65
2018-07-04T02:57:52.477Z,1009.62
2018-07-04T02:59:02.436Z,1009.65
2018-07-04T03:00:12.138Z,1009.66
2018-07-04T03:01:21.851Z,1009.63
2018-07-04T03:02:31.825Z,1009.6
2018-07-04T03:03:41.794Z,1009.6
2018-07-04T03:04:51.770Z,1009.61
2018-07-04T03:06:01.486Z,1009.65
2018-07-04T03:07:10.952Z,1009.63
2018-07-04T03:08:20.927Z,1009.62
2018-07-04T03:09:30.887Z,1009.61
2018-07-04T03:10:40.614Z,1009.66
2018-07-04T03:11:50.582Z,1009.63
2018-07-04T03:13:00.304Z,1009.65
2018-07-04T03:14:10.281Z,1009.65
2018-07-04T03:15:20.012Z,1009.62
2018-07-04T03:16:29.716Z,1009.62
2018-07-04T03:17:39.712Z,1009.66
2018-07-04T03:18:49.477Z,1009.63
2018-07-04T03:19:59.205Z,1009.64
2018-07-04T03:21:09.173Z,1009.61
2018-07-04T03:22:19.136Z,1009.61
2018-07-04T03:23:28.584Z,1009.63
2018-07-04T03:24:38.289Z,1009.66
2018-07-04T03:25:48.267Z,1009.66
2018-07-04T03:26:57.732Z,1009.64
2018-07-04T03:28:07.709Z,1009.59
2018-07-04T03:29:17.667Z,1009.64
2018-07-04T03:30:27.381Z,1009.6
2018-07-04T03:31:37.348Z,1009.6
2018-07-04T03:32:47.129Z,1009.6
2018-07-04T03:33:57.162Z,1009.63
2018-07-04T03:35:07.148Z,1009.62
2018-07-04T03:36:17.115Z,1009.57
2018-07-04T03:37:26.829Z,1009.58
2018-07-04T03:38:36.792Z,1009.56
2018-07-04T03:39:46.762Z,1009.55
2018-07-04T03:40:56.214Z,1009.56
2018-07-04T03:42:06.200Z,1009.55
2018-07-04T03:43:15.904Z,1009.59
2018-07-04T03:44:25.357Z,1009.55
2018-07-04T03:45:35.061Z,1009.55
2018-07-04T03:46:45.030Z,1009.57
2018-07-04T03:47:54.743Z,1009.56
2018-07-04T03:49:04.732Z,1009.53
2018-07-04T03:50:14.720Z,1009.55
2018-07-04T03:51:24.185Z,1009.47
2018-07-04T03:52:34.150Z,1009.49
2018-07-04T03:53:44.136Z,1009.52
2018-07-04T03:54:54.096Z,1009.5
2018-07-04T03:56:04.069Z,1009.49
2018-07-04T03:57:14.029Z,1009.51
2018-07-04T03:58:23.730Z,1009.51
2018-07-04T03:59:33.432Z,1009.48
2018-07-04T04:00:43.148Z,1009.48
2018-07-04T04:01:53.118Z,1009.47
2018-07-04T04:03:02.824Z,1009.44
2018-07-04T04:04:12.782Z,1009.52
2018-07-04T04:05:22.485Z,1009.51
2018-07-04T04:06:32.208Z,1009.53
2018-07-04T04:07:41.915Z,1009.49
2018-07-04T04:08:51.883Z,1009.55
2018-07-04T04:10:01.857Z,1009.55
2018-07-04T04:11:11.828Z,1009.59
2018-07-04T04:12:21.797Z,1009.54
2018-07-04T04:13:31.762Z,1009.56
2018-07-04T04:14:41.495Z,1009.55
2018-07-04T04:15:51.208Z,1009.53
2018-07-04T04:17:00.912Z,1009.55
2018-07-04T04:18:10.903Z,1009.55
2018-07-04T04:19:20.877Z,1009.56
2018-07-04T04:20:30.596Z,1009.6
2018-07-04T04:21:40.603Z,1009.59
2018-07-04T04:22:50.584Z,1009.63
2018-07-04T04:24:00.586Z,1009.59
2018-07-04T04:25:10.030Z,1009.58
2018-07-04T04:26:20.000Z,1009.64
2018-07-04T04:27:29.969Z,1009.63
2018-07-04T04:28:39.951Z,1009.62
2018-07-04T04:29:49.919Z,1009.59
2018-07-04T04:30:59.882Z,1009.63
2018-07-04T04:32:09.848Z,1009.63
2018-07-04T04:33:19.552Z,1009.66
2018-07-04T04:34:29.534Z,1009.61
2018-07-04T04:35:39.253Z,1009.61
2018-07-04T04:36:49.234Z,1009.61
2018-07-04T04:37:58.683Z,1009.59
2018-07-04T04:39:08.639Z,1009.6
2018-07-04T04:40:18.597Z,1009.57
2018-07-04T04:41:28.570Z,1009.54
2018-07-04T04:42:38.284Z,1009.57
2018-07-04T04:43:48.249Z,1009.57
2018-07-04T04:44:57.956Z,1009.59
2018-07-04T04:46:07.703Z,1009.58
2018-07-04T04:47:17.670Z,1009.59
2018-07-04T04:48:27.627Z,1009.58
2018-07-04T04:49:37.337Z,1009.56
2018-07-04T04:50:47.298Z,1009.6
2018-07-04T04:51:57.026Z,1009.57
2018-07-04T04:53:06.988Z,1009.58
2018-07-04T04:54:16.703Z,1009.59
2018-07-04T04:55:26.666Z,1009.57
2018-07-04T04:56:36.628Z,1009.58
2018-07-04T04:57:46.593Z,1009.57
2018-07-04T04:58:56.567Z,1009.63
2018-07-04T05:00:06.545Z,1009.65
2018-07-04T05:01:16.507Z,1009.68
2018-07-04T05:02:25.962Z,1009.69
2018-07-04T05:03:35.938Z,1009.69
2018-07-04T05:04:45.644Z,1009.68
2018-07-04T05:05:55.610Z,1009.69
2018-07-04T05:07:05.604Z,1009.72
2018-07-04T05:08:15.581Z,1009.74
2018-07-04T05:09:25.296Z,1009.74
2018-07-04T05:10:35.281Z,1009.77
2018-07-04T05:11:45.262Z,1009.73
2018-07-04T05:12:54.979Z,1009.73
2018-07-04T05:14:04.956Z,1009.73
2018-07-04T05:15:14.665Z,1009.72
2018-07-04T05:16:24.835Z,1009.72
2018-07-04T05:17:34.539Z,1009.73
2018-07-04T05:18:44.244Z,1009.69
2018-07-04T05:19:54.221Z,1009.71
2018-07-04T05:21:04.187Z,1009.73
2018-07-04T05:22:14.181Z,1009.73
2018-07-04T05:23:24.144Z,1009.74
2018-07-04T05:24:33.869Z,1009.69
2018-07-04T05:25:43.839Z,1009.75
2018-07-04T05:26:53.563Z,1009.73
2018-07-04T05:28:03.524Z,1009.73
2018-07-04T05:29:13.547Z,1009.72
2018-07-04T05:30:23.502Z,1009.72
2018-07-04T05:31:33.478Z,1009.74
2018-07-04T05:32:43.471Z,1009.75
2018-07-04T05:33:52.929Z,1009.73
2018-07-04T05:35:02.979Z,1009.75
2018-07-04T05:36:13.223Z,1009.75
2018-07-04T05:37:22.952Z,1009.72
2018-07-04T05:38:33.147Z,1009.77
2018-07-04T05:39:42.864Z,1009.79
2018-07-04T05:40:52.883Z,1009.78
2018-07-04T05:42:02.838Z,1009.78
2018-07-04T05:43:12.807Z,1009.74
2018-07-04T05:44:22.794Z,1009.74
2018-07-04T05:45:32.973Z,1009.81
2018-07-04T05:46:42.944Z,1009.78
2018-07-04T05:47:52.666Z,1009.77
2018-07-04T05:49:02.909Z,1009.8
2018-07-04T05:50:13.304Z,1009.8
2018-07-04T05:51:23.517Z,1009.81
2018-07-04T05:52:33.992Z,1009.82
2018-07-04T05:53:43.961Z,1009.79
2018-07-04T05:54:53.934Z,1009.79
2018-07-04T05:56:03.911Z,1009.8
2018-07-04T05:57:13.739Z,1009.75
2018-07-04T05:58:23.711Z,1009.83
2018-07-04T05:59:33.697Z,1009.84
2018-07-04T06:00:43.416Z,1009.83
2018-07-04T06:01:53.383Z,1009.82
2018-07-04T06:03:02.847Z,1009.84
2018-07-04T06:04:12.829Z,1009.83
2018-07-04T06:05:22.807Z,1009.81
2018-07-04T06:06:32.560Z,1009.81
2018-07-04T06:07:42.054Z,1009.78
2018-07-04T06:08:51.817Z,1009.74
2018-07-04T06:10:01.858Z,1009.77
2018-07-04T06:11:11.843Z,1009.77
2018-07-04T06:12:21.834Z,1009.77
2018-07-04T06:13:31.794Z,1009.81
2018-07-04T06:14:41.759Z,1009.76
2018-07-04T06:15:51.740Z,1009.78
2018-07-04T06:17:01.745Z,1009.81
2018-07-04T06:18:11.731Z,1009.77
2018-07-04T06:19:21.433Z,1009.79
2018-07-04T06:20:30.880Z,1009.81
2018-07-04T06:21:40.848Z,1009.83
2018-07-04T06:22:50.575Z,1009.86
2018-07-04T06:24:00.285Z,1009.85
2018-07-04T06:25:10.023Z,1009.85
2018-07-04T06:26:20.013Z,1009.82
2018-07-04T06:27:29.996Z,1009.81
2018-07-04T06:28:39.973Z,1009.85
2018-07-04T06:29:49.684Z,1009.83
2018-07-04T06:30:59.656Z,1009.78
2018-07-04T06:32:09.638Z,1009.82
2018-07-04T06:33:19.695Z,1009.8
2018-07-04T06:34:29.679Z,1009.83
2018-07-04T06:35:39.676Z,1009.83
2018-07-04T06:36:49.393Z,1009.86
2018-07-04T06:37:59.359Z,1009.84
2018-07-04T06:39:08.821Z,1009.79
2018-07-04T06:40:19.123Z,1009.78
2018-07-04T06:41:28.796Z,1009.81
2018-07-04T06:42:38.765Z,1009.81
2018-07-04T06:43:48.519Z,1009.87
2018-07-04T06:44:58.245Z,1009.87
2018-07-04T06:46:07.952Z,1009.84
2018-07-04T06:47:17.943Z,1009.88
2018-07-04T06:48:27.902Z,1009.82
2018-07-04T06:49:37.892Z,1009.81
2018-07-04T06:50:47.868Z,1009.84
2018-07-04T06:51:57.584Z,1009.83
2018-07-04T06:53:07.574Z,1009.86
2018-07-04T06:54:17.589Z,1009.84
2018-07-04T06:55:27.978Z,1009.85
2018-07-04T06:56:37.690Z,1009.84
2018-07-04T06:57:47.672Z,1009.86
2018-07-04T06:58:57.639Z,1009.84
2018-07-04T07:00:07.618Z,1009.84
2018-07-04T07:01:17.609Z,1009.89
2018-07-04T07:02:27.593Z,1009.92
2018-07-04T07:03:37.595Z,1009.91
2018-07-04T07:04:47.308Z,1009.87
2018-07-04T07:05:57.289Z,1009.84
2018-07-04T07:07:07.003Z,1009.86
2018-07-04T07:08:16.729Z,1009.84
2018-07-04T07:09:26.807Z,1009.87
2018-07-04T07:10:36.901Z,1009.86
2018-07-04T07:11:46.614Z,1009.88
2018-07-04T07:12:56.610Z,1009.88
2018-07-04T07:14:06.063Z,1009.86
2018-07-04T07:15:16.036Z,1009.92
2018-07-04T07:16:26.014Z,1009.89
2018-07-04T07:17:35.757Z,1009.88
2018-07-04T07:18:45.780Z,1009.87
2018-07-04T07:19:55.497Z,1009.9
2018-07-04T07:21:05.523Z,1009.89
2018-07-04T07:22:15.797Z,1009.9
2018-07-04T07:23:25.505Z,1009.92
2018-07-04T07:24:35.216Z,1009.91
2018-07-04T07:25:45.187Z,1009.92
2018-07-04T07:26:54.901Z,1009.9
2018-07-04T07:28:04.883Z,1009.9
2018-07-04T07:29:14.880Z,1009.88
2018-07-04T07:30:24.615Z,1009.88
2018-07-04T07:31:34.576Z,1009.88
2018-07-04T07:32:44.327Z,1009.88
2018-07-04T07:33:54.330Z,1009.88
2018-07-04T07:35:04.360Z,1009.89
2018-07-04T07:36:14.082Z,1009.92
2018-07-04T07:37:24.061Z,1009.89
2018-07-04T07:38:34.060Z,1009.88
2018-07-04T07:39:43.512Z,1009.87
2018-07-04T07:40:53.231Z,1009.87
2018-07-04T07:42:03.239Z,1009.85
2018-07-04T07:43:13.432Z,1009.9
2018-07-04T07:44:23.142Z,1009.85
2018-07-04T07:45:33.112Z,1009.87
2018-07-04T07:46:43.080Z,1009.82
2018-07-04T07:47:53.051Z,1009.85
2018-07-04T07:49:03.038Z,1009.84
2018-07-04T07:50:12.778Z,1009.82
2018-07-04T07:51:22.760Z,1009.78
2018-07-04T07:52:32.736Z,1009.82
2018-07-04T07:53:42.717Z,1009.83
2018-07-04T07:54:52.690Z,1009.8
2018-07-04T07:56:02.448Z,1009.86
2018-07-04T07:57:12.165Z,1009.84
2018-07-04T07:58:21.624Z,1009.81
2018-07-04T07:59:31.351Z,1009.82
2018-07-04T08:00:41.328Z,1009.79
2018-07-04T08:01:51.165Z,1009.82
2018-07-04T08:03:01.372Z,1009.8
2018-07-04T08:04:11.369Z,1009.74
2018-07-04T08:05:21.345Z,1009.76
2018-07-04T08:06:31.324Z,1009.79
2018-07-04T08:07:41.046Z,1009.73
2018-07-04T08:08:51.036Z,1009.73
2018-07-04T08:10:01.014Z,1009.72
2018-07-04T08:11:10.733Z,1009.78
2018-07-04T08:12:20.466Z,1009.71
2018-07-04T08:13:30.456Z,1009.72
2018-07-04T08:14:40.440Z,1009.66
2018-07-04T08:15:50.417Z,1009.63
2018-07-04T08:17:00.160Z,1009.63
2018-07-04T08:18:10.165Z,1009.62
2018-07-04T08:19:19.893Z,1009.63
2018-07-04T08:20:29.613Z,1009.64
2018-07-04T08:21:39.341Z,1009.63
2018-07-04T08:22:49.336Z,1009.64
2018-07-04T08:23:59.314Z,1009.58
2018-07-04T08:25:09.085Z,1009.61
2018-07-04T08:26:18.827Z,1009.57
2018-07-04T08:27:29.127Z,1009.57
2018-07-04T08:28:39.116Z,1009.62
2018-07-04T08:29:48.571Z,1009.6
2018-07-04T08:30:58.537Z,1009.57
2018-07-04T08:32:08.529Z,1009.58
2018-07-04T08:33:18.271Z,1009.61
2018-07-04T08:34:28.374Z,1009.57
2018-07-04T08:35:38.345Z,1009.55
2018-07-04T08:36:48.326Z,1009.59
2018-07-04T08:37:58.041Z,1009.57
2018-07-04T08:39:07.799Z,1009.55
2018-07-04T08:40:17.971Z,1009.54
2018-07-04T08:41:27.949Z,1009.6
2018-07-04T08:42:37.968Z,1009.61
2018-07-04T08:43:47.947Z,1009.6
2018-07-04T08:44:57.931Z,1009.57
2018-07-04T08:46:07.956Z,1009.64
2018-07-04T08:47:17.966Z,1009.65
2018-07-04T08:48:27.695Z,1009.66
2018-07-04T08:49:37.685Z,1009.66
2018-07-04T08:50:47.695Z,1009.6
2018-07-04T08:51:58.048Z,1009.63
2018-07-04T08:53:08.037Z,1009.61
2018-07-04T08:54:18.023Z,1009.63
2018-07-04T08:55:28.013Z,1009.63
2018-07-04T08:56:38.023Z,1009.61
2018-07-04T08:57:47.740Z,1009.62
2018-07-04T08:58:57.735Z,1009.62
2018-07-04T09:00:07.729Z,1009.63
2018-07-04T09:01:17.713Z,1009.63
2018-07-04T09:02:27.439Z,1009.62
2018-07-04T09:03:37.425Z,1009.58
2018-07-04T09:04:47.155Z,1009.54
2018-07-04T09:05:57.164Z,1009.54
2018-07-04T09:07:06.902Z,1009.56
2018-07-04T09:08:16.922Z,1009.57
2018-07-04T09:09:26.636Z,1009.56
2018-07-04T09:10:36.368Z,1009.55
2018-07-04T09:11:46.159Z,1009.56
2018-07-04T09:12:56.922Z,1009.59
2018-07-04T09:14:06.957Z,1009.57
2018-07-04T09:15:16.961Z,1009.55
2018-07-04T09:16:26.698Z,1009.55
2018-07-04T09:17:36.677Z,1009.59
2018-07-04T09:18:46.689Z,1009.61
2018-07-04T09:19:56.692Z,1009.6
2018-07-04T09:21:06.667Z,1009.55
2018-07-04T09:22:16.420Z,1009.6
2018-07-04T09:23:26.445Z,1009.57
2018-07-04T09:24:36.190Z,1009.57
2018-07-04T09:25:46.227Z,1009.58
2018-07-04T09:26:56.225Z,1009.55
2018-07-04T09:28:05.961Z,1009.47
2018-07-04T09:29:15.691Z,1009.5
2018-07-04T09:30:25.680Z,1009.45
2018-07-04T09:31:35.409Z,1009.45
2018-07-04T09:32:45.493Z,1009.49
2018-07-04T09:33:55.537Z,1009.48
2018-07-04T09:35:05.269Z,1009.46
2018-07-04T09:36:15.259Z,1009.42
2018-07-04T09:37:25.266Z,1009.45
2018-07-04T09:38:35.028Z,1009.43
2018-07-04T09:39:44.247Z,1009.5
2018-07-04T09:40:53.980Z,1009.46
2018-07-04T09:42:03.971Z,1009.41
2018-07-04T09:43:13.943Z,1009.47
2018-07-04T09:44:24.010Z,1009.51
2018-07-04T09:45:33.913Z,1009.45
2018-07-04T09:46:43.655Z,1009.43
2018-07-04T09:47:53.651Z,1009.45
2018-07-04T09:49:03.391Z,1009.41
2018-07-04T09:50:13.124Z,1009.45
2018-07-04T09:51:23.106Z,1009.39
2018-07-04T09:52:33.152Z,1009.34
2018-07-04T09:53:43.168Z,1009.38
2018-07-04T09:54:53.146Z,1009.31
2018-07-04T09:56:03.143Z,1009.35
2018-07-04T09:57:12.874Z,1009.39
2018-07-04T09:58:22.885Z,1009.37
2018-07-04T09:59:32.611Z,1009.39
2018-07-04T10:00:42.342Z,1009.34
2018-07-04T10:01:52.337Z,1009.32
2018-07-04T10:03:02.331Z,1009.41
2018-07-04T10:04:12.331Z,1009.38
2018-07-04T10:05:22.317Z,1009.34
2018-07-04T10:06:32.313Z,1009.34
2018-07-04T10:07:42.299Z,1009.37
2018-07-04T10:08:52.277Z,1009.34
2018-07-04T10:10:02.024Z,1009.36
2018-07-04T10:11:11.763Z,1009.34
2018-07-04T10:12:21.492Z,1009.31
2018-07-04T10:13:31.505Z,1009.29
2018-07-04T10:14:41.538Z,1009.31
2018-07-04T10:15:51.267Z,1009.26
2018-07-04T10:17:01.286Z,1009.24
2018-07-04T10:18:11.063Z,1009.28
2018-07-04T10:19:21.334Z,1009.26
2018-07-04T10:20:31.332Z,1009.23
2018-07-04T10:21:41.335Z,1009.27
2018-07-04T10:22:51.371Z,1009.23
2018-07-04T10:24:00.876Z,1009.24
2018-07-04T10:25:10.597Z,1009.22
2018-07-04T10:26:20.613Z,1009.2
2018-07-04T10:27:30.612Z,1009.14
2018-07-04T10:28:40.615Z,1009.18
2018-07-04T10:29:50.104Z,1009.1
2018-07-04T10:31:00.106Z,1009.09
2018-07-04T10:32:10.126Z,1009.08
2018-07-04T10:33:20.147Z,1009.09
2018-07-04T10:34:29.627Z,1009.09
2018-07-04T10:35:39.366Z,1009.07
2018-07-04T10:36:49.402Z,1009.11
2018-07-04T10:37:59.445Z,1009.09
2018-07-04T10:39:09.427Z,1009.14
2018-07-04T10:40:19.190Z,1009.13
2018-07-04T10:41:29.242Z,1009.13
2018-07-04T10:42:39.225Z,1009.11
2018-07-04T10:43:49.220Z,1009.06
2018-07-04T10:44:59.250Z,1009.05
2018-07-04T10:46:09.252Z,1009
2018-07-04T10:47:19.007Z,1008.96
2018-07-04T10:48:28.753Z,1008.97
2018-07-04T10:49:38.752Z,1008.98
2018-07-04T10:50:48.492Z,1009
2018-07-04T10:51:58.607Z,1009.01
2018-07-04T10:53:08.635Z,1009.02
2018-07-04T10:54:18.109Z,1008.99
2018-07-04T10:55:28.090Z,1008.98
2018-07-04T10:56:38.089Z,1008.95
2018-07-04T10:57:48.074Z,1008.97
2018-07-04T10:58:58.072Z,1008.99
2018-07-04T11:00:07.814Z,1009.01
2018-07-04T11:01:17.570Z,1008.96
2018-07-04T11:02:27.551Z,1008.97
2018-07-04T11:03:37.289Z,1009.07
2018-07-04T11:04:47.310Z,1008.97
2018-07-04T11:05:57.303Z,1009.04
2018-07-04T11:07:07.053Z,1008.98
2018-07-04T11:08:17.059Z,1008.98
2018-07-04T11:09:27.079Z,1008.94
2018-07-04T11:10:37.064Z,1008.89
2018-07-04T11:11:47.090Z,1008.92
2018-07-04T11:12:56.819Z,1008.9
2018-07-04T11:14:06.836Z,1008.92
2018-07-04T11:15:16.071Z,1009.01
2018-07-04T11:16:26.074Z,1008.95
2018-07-04T11:17:36.070Z,1008.9
2018-07-04T11:18:46.092Z,1008.89
2018-07-04T11:19:55.826Z,1008.82
2018-07-04T11:21:05.814Z,1008.79
2018-07-04T11:22:15.832Z,1008.76
2018-07-04T11:23:25.917Z,1008.73
2018-07-04T11:24:35.902Z,1008.74
2018-07-04T11:25:45.901Z,1008.73
2018-07-04T11:26:55.646Z,1008.79
2018-07-04T11:28:05.384Z,1008.78
2018-07-04T11:29:15.390Z,1008.72
2018-07-04T11:30:25.426Z,1008.72
2018-07-04T11:31:35.427Z,1008.72
2018-07-04T11:32:45.451Z,1008.64
2018-07-04T11:33:55.507Z,1008.7
2018-07-04T11:35:05.245Z,1008.79
2018-07-04T11:36:14.990Z,1008.79
2018-07-04T11:37:24.994Z,1008.78
2018-07-04T11:38:35.008Z,1008.69
2018-07-04T11:39:45.009Z,1008.7
2018-07-04T11:40:55.033Z,1008.66
2018-07-04T11:42:05.032Z,1008.69
2018-07-04T11:43:14.812Z,1008.6
2018-07-04T11:44:24.815Z,1008.6
2018-07-04T11:45:34.283Z,1008.66
2018-07-04T11:46:44.274Z,1008.61
2018-07-04T11:47:54.273Z,1008.62
2018-07-04T11:49:04.274Z,1008.6
2018-07-04T11:50:14.274Z,1008.68
2018-07-04T11:51:24.274Z,1008.64
2018-07-04T11:52:34.280Z,1008.62
2018-07-04T11:53:44.255Z,1008.62
2018-07-04T11:54:54.258Z,1008.66
2018-07-04T11:56:03.978Z,1008.6
2018-07-04T11:57:13.975Z,1008.62
2018-07-04T11:58:23.993Z,1008.58
2018-07-04T11:59:33.478Z,1008.52
2018-07-04T12:00:43.488Z,1008.54
2018-07-04T12:01:53.292Z,1008.54
2018-07-04T12:03:03.316Z,1008.51
2018-07-04T12:04:13.298Z,1008.54
2018-07-04T12:05:23.062Z,1008.64
2018-07-04T12:06:33.419Z,1008.6
2018-07-04T12:07:43.161Z,1008.61
2018-07-04T12:08:53.145Z,1008.56
2018-07-04T12:10:02.882Z,1008.59
2018-07-04T12:11:12.867Z,1008.58
2018-07-04T12:12:22.863Z,1008.58
2018-07-04T12:13:32.337Z,1008.6
2018-07-04T12:14:42.335Z,1008.63
2018-07-04T12:15:52.375Z,1008.59
2018-07-04T12:17:02.131Z,1008.54
2018-07-04T12:18:11.870Z,1008.6
2018-07-04T12:19:21.864Z,1008.53
2018-07-04T12:20:31.080Z,1008.52
2018-07-04T12:21:40.799Z,1008.53
2018-07-04T12:22:50.808Z,1008.5
2018-07-04T12:24:00.815Z,1008.51
2018-07-04T12:25:10.543Z,1008.47
2018-07-04T12:26:20.013Z,1008.44
2018-07-04T12:27:30.016Z,1008.49
2018-07-04T12:28:40.011Z,1008.44
2018-07-04T12:29:50.003Z,1008.44
2018-07-04T12:30:59.990Z,1008.43
2018-07-04T12:32:10.013Z,1008.42
2018-07-04T12:33:20.010Z,1008.41
2018-07-04T12:34:30.032Z,1008.41
2018-07-04T12:35:40.029Z,1008.4
2018-07-04T12:36:50.022Z,1008.37
2018-07-04T12:38:00.017Z,1008.38
2018-07-04T12:39:09.790Z,1008.4
2018-07-04T12:40:19.532Z,1008.42
2018-07-04T12:41:29.266Z,1008.38
2018-07-04T12:42:39.243Z,1008.37
2018-07-04T12:43:49.324Z,1008.34
2018-07-04T12:44:59.116Z,1008.31
2018-07-04T12:46:09.124Z,1008.33
2018-07-04T12:47:19.155Z,1008.35
2018-07-04T12:48:29.331Z,1008.33
2018-07-04T12:49:39.316Z,1008.36
2018-07-04T12:50:49.045Z,1008.29
2018-07-04T12:51:59.039Z,1008.3
2018-07-04T12:53:08.789Z,1008.24
2018-07-04T12:54:18.927Z,1008.22
2018-07-04T12:55:29.333Z,1008.19
2018-07-04T12:56:39.320Z,1008.19
2018-07-04T12:57:49.304Z,1008.2
2018-07-04T12:58:59.308Z,1008.22
2018-07-04T13:00:09.032Z,1008.19
2018-07-04T13:01:19.036Z,1008.18
2018-07-04T13:02:29.039Z,1008.19
2018-07-04T13:03:39.045Z,1008.16
2018-07-04T13:04:49.045Z,1008.12
2018-07-04T13:05:59.040Z,1008.09
2018-07-04T13:07:09.030Z,1008.15
2018-07-04T13:08:19.029Z,1008.12
2018-07-04T13:09:29.028Z,1008.11
2018-07-04T13:10:38.509Z,1008.09
2018-07-04T13:11:48.508Z,1008.12
2018-07-04T13:12:57.991Z,1008.1
2018-07-04T13:14:07.999Z,1008.07
2018-07-04T13:15:18.012Z,1008.06
2018-07-04T13:16:27.770Z,1008
2018-07-04T13:17:37.525Z,1007.93
2018-07-04T13:18:47.508Z,1007.94
2018-07-04T13:19:57.247Z,1007.93
2018-07-04T13:21:07.484Z,1007.91
2018-07-04T13:22:17.477Z,1007.97
2018-07-04T13:23:27.467Z,1007.92
2018-07-04T13:24:37.475Z,1007.94
2018-07-04T13:25:47.474Z,1007.94
2018-07-04T13:26:57.178Z,1007.9
2018-07-04T13:28:06.928Z,1007.91
2018-07-04T13:29:16.655Z,1007.92
2018-07-04T13:30:26.640Z,1007.96
2018-07-04T13:31:36.127Z,1007.91
2018-07-04T13:32:46.121Z,1008.02
2018-07-04T13:33:56.094Z,1007.9
2018-07-04T13:35:06.081Z,1007.85
2018-07-04T13:36:16.079Z,1007.91
2018-07-04T13:37:26.082Z,1007.86
2018-07-04T13:38:35.553Z,1007.86
2018-07-04T13:39:45.330Z,1007.8
2018-07-04T13:40:55.072Z,1007.8
2018-07-04T13:42:05.089Z,1007.82
2018-07-04T13:43:15.194Z,1007.9
2018-07-04T13:44:25.225Z,1007.76
2018-07-04T13:45:35.552Z,1007.82
2018-07-04T13:46:45.534Z,1007.8
2018-07-04T13:47:55.261Z,1007.81
2018-07-04T13:49:05.257Z,1007.82
2018-07-04T13:50:15.263Z,1007.78
2018-07-04T13:51:24.988Z,1007.78
2018-07-04T13:52:34.971Z,1007.78
2018-07-04T13:53:44.988Z,1007.75
2018-07-04T13:54:54.986Z,1007.72
2018-07-04T13:56:04.728Z,1007.78
2018-07-04T13:57:14.723Z,1007.69
2018-07-04T13:58:25.042Z,1007.67
2018-07-04T13:59:34.769Z,1007.66
2018-07-04T14:00:44.491Z,1007.67
2018-07-04T14:01:54.490Z,1007.59
2018-07-04T14:03:04.259Z,1007.6
2018-07-04T14:04:14.241Z,1007.56
2018-07-04T14:05:24.291Z,1007.57
2018-07-04T14:06:34.308Z,1007.53
2018-07-04T14:07:44.037Z,1007.47
2018-07-04T14:08:53.782Z,1007.45